Time;durP1;ratioP1;P1;durP2;ratioP2;P2;SDS_P1;SDS_P2;PMS_P1;PMS_P2;Temp;Humidity;BMP_temperature;BMP_pressure;BME280_temperature;BME280_humidity;BME280_pressure;Samples;Min_cycle;Max_cycle;Signal;HPM_P1;HPM_P2
2024/04/06 00:00:08;;;;;;;4.45;1.70;;;14.20;99.90;;;17.97;99.67;100428.25;4907460;29;20087;-78
2024/04/06 00:02:37;;;;;;;6.15;2.05;;;14.30;99.90;;;18.01;100.00;100419.44;4913737;29;20127;-78
2024/04/06 00:05:03;;;;;;;5.03;1.60;;;14.30;99.90;;;18.28;98.01;100426.69;4910093;29;20044;-78
2024/04/06 00:07:29;;;;;;;4.00;1.45;;;14.30;99.90;;;18.27;97.63;100423.09;4913221;29;20048;-78
2024/04/06 00:09:55;;;;;;;5.97;1.80;;;14.20;99.90;;;18.16;97.15;100411.22;4905510;29;20397;-80
2024/04/06 00:12:21;;;;;;;4.35;1.77;;;14.20;99.90;;;18.19;97.11;100412.63;4927274;29;20036;-80
2024/04/06 00:14:47;;;;;;;3.83;1.58;;;14.20;99.90;;;18.33;96.20;100423.94;4916223;29;20067;-78
2024/04/06 00:17:12;;;;;;;4.90;1.60;;;14.20;99.90;;;17.86;98.15;100412.78;4906395;29;20040;-78
2024/04/06 00:19:38;;;;;;;5.50;1.70;;;14.20;99.90;;;18.06;97.95;100416.72;4917671;29;20099;-78
2024/04/06 00:22:04;;;;;;;3.17;1.63;;;14.10;99.90;;;17.95;100.00;100441.50;4917755;29;20040;-78
2024/04/06 00:24:30;;;;;;;4.70;1.70;;;14.10;99.90;;;18.01;99.22;100424.94;4907086;29;20488;-78
2024/04/06 00:26:55;;;;;;;7.78;1.90;;;14.00;99.90;;;18.06;97.65;100442.38;4928834;29;20040;-78
2024/04/06 00:29:21;;;;;;;3.90;1.55;;;14.00;99.90;;;18.15;97.68;100445.44;4917578;29;20465;-78
2024/04/06 00:31:47;;;;;;;3.83;1.45;;;14.00;99.90;;;18.07;97.25;100446.00;4917448;29;20039;-78
2024/04/06 00:34:12;;;;;;;4.00;1.67;;;14.00;99.90;;;18.05;97.06;100439.91;4917626;29;20040;-78
2024/04/06 00:36:38;;;;;;;4.38;1.63;;;14.00;99.90;;;18.25;96.12;100462.03;4901109;29;20066;-79
2024/04/06 00:39:04;;;;;;;4.72;1.50;;;14.00;99.90;;;18.07;98.34;100470.84;4917419;29;20036;-78
2024/04/06 00:41:30;;;;;;;7.65;1.98;;;13.90;99.90;;;18.14;97.14;100465.03;4908174;29;20412;-78
2024/04/06 00:43:56;;;;;;;5.15;1.70;;;14.00;99.90;;;18.14;97.39;100476.91;4910259;29;20040;-78
2024/04/06 00:46:22;;;;;;;3.72;1.63;;;14.00;99.90;;;18.20;96.63;100480.53;4916403;29;20500;-78
2024/04/06 00:48:48;;;;;;;5.28;1.50;;;13.90;99.90;;;18.16;95.83;100488.50;4917068;29;20047;-78
2024/04/06 00:51:13;;;;;;;5.30;1.65;;;13.80;99.90;;;17.91;98.12;100481.78;4917259;29;20032;-78
2024/04/06 00:53:40;;;;;;;5.35;1.98;;;13.90;99.90;;;18.19;96.94;100489.91;4910773;29;20383;-80
2024/04/06 00:56:06;;;;;;;5.20;1.58;;;13.80;99.90;;;18.19;96.68;100484.41;4913951;29;20112;-78
2024/04/06 00:58:33;;;;;;;4.45;1.60;;;13.80;99.90;;;17.94;98.80;100486.75;4916884;29;20106;-77
2024/04/06 01:00:59;;;;;;;4.35;1.70;;;13.70;99.90;;;18.06;98.16;100478.28;4917359;29;20051;-78
2024/04/06 01:03:25;;;;;;;5.57;1.65;;;13.70;99.90;;;17.89;99.24;100486.75;4917081;29;20032;-78
2024/04/06 01:05:51;;;;;;;4.22;1.50;;;13.80;99.90;;;17.88;99.27;100493.34;4923220;29;20397;-78
2024/04/06 01:08:18;;;;;;;3.67;1.50;;;13.90;99.90;;;18.08;97.46;100483.53;4916915;29;20048;-78
2024/04/06 01:10:44;;;;;;;2.85;1.23;;;13.90;99.90;;;18.06;97.52;100485.72;4916649;29;20040;-77
2024/04/06 01:13:10;;;;;;;3.42;1.40;;;13.90;99.90;;;18.20;96.73;100484.09;4916111;29;20064;-77
2024/04/06 01:15:36;;;;;;;3.63;1.52;;;14.00;99.90;;;18.03;96.71;100486.25;4917138;29;20440;-76
2024/04/06 01:18:02;;;;;;;4.85;1.77;;;14.00;99.90;;;18.19;96.22;100485.19;4915941;29;20044;-78
2024/04/06 01:20:28;;;;;;;5.32;1.60;;;14.10;99.90;;;18.16;95.44;100488.50;4910033;29;20040;-77
2024/04/06 01:22:54;;;;;;;4.28;1.45;;;14.10;99.90;;;18.25;95.25;100491.56;4910173;29;20131;-77
2024/04/06 01:25:20;;;;;;;3.65;1.35;;;14.10;99.90;;;18.11;96.15;100499.53;4915573;29;20036;-78
2024/04/06 01:27:45;;;;;;;3.63;1.52;;;14.10;99.90;;;18.10;96.30;100497.88;4904994;29;20440;-78
2024/04/06 01:30:15;;;;;;;7.28;1.60;;;14.00;99.90;;;18.20;96.40;100497.91;4912243;29;20032;-77
2024/04/06 01:32:52;;;;;;;4.00;1.63;;;14.00;99.90;;;18.10;95.48;100482.13;4916529;29;20071;-77
2024/04/06 01:35:18;;;;;;;2.90;1.50;;;14.00;99.90;;;18.11;95.94;100482.97;4916618;29;20464;-79
2024/04/06 01:37:48;;;;;;;6.80;1.60;;;13.90;99.90;;;18.23;95.36;100478.03;4911824;29;20048;-78
2024/04/06 01:40:13;;;;;;;5.30;1.58;;;13.80;99.90;;;18.06;96.38;100474.69;4916243;29;20036;-78
2024/04/06 01:42:40;;;;;;;4.43;1.52;;;13.80;99.90;;;18.23;95.02;100477.22;4916410;29;20083;-78
2024/04/06 01:45:06;;;;;;;2.50;1.30;;;13.70;99.90;;;18.04;95.34;100477.72;4915720;29;20092;-79
2024/04/06 01:47:32;;;;;;;4.25;1.50;;;13.60;99.90;;;17.97;96.40;100483.44;4916204;29;20044;-78
2024/04/06 01:50:06;;;;;;;3.53;1.38;;;13.50;99.90;;;17.86;97.92;100481.75;4915900;29;20389;-78
2024/04/06 01:52:32;;;;;;;4.07;1.75;;;13.40;99.90;;;17.58;99.72;100485.75;4916307;29;20036;-79
2024/04/06 01:55:00;;;;;;;4.43;1.73;;;13.30;99.90;;;17.58;100.00;100485.75;4916075;29;20393;-78
2024/04/06 01:57:26;;;;;;;;;;;13.20;99.90;;;17.43;100.00;100475.47;4916776;29;20044;-78
2024/04/06 01:59:52;;;;;;;5.55;2.00;;;13.30;99.90;;;17.39;100.00;100456.72;4916141;29;19986;-77
2024/04/06 02:02:18;;;;;;;5.43;1.73;;;13.20;99.90;;;17.48;100.00;100472.75;4915747;29;20099;-77
2024/04/06 02:04:46;;;;;;;4.72;1.58;;;13.20;99.90;;;17.50;100.00;100481.56;4915786;29;20477;-78
2024/04/06 02:07:12;;;;;;;;;;;13.20;99.90;;;17.55;100.00;100481.63;4914033;29;20063;-78
2024/04/06 02:09:38;;;;;;;4.07;1.50;;;13.20;99.90;;;17.47;100.00;100477.44;4915603;29;19921;-78
2024/04/06 02:12:04;;;;;;;6.45;1.67;;;13.10;99.90;;;17.25;100.00;100472.09;4910910;29;20060;-77
2024/04/06 02:14:30;;;;;;;6.63;1.98;;;13.10;99.90;;;17.52;100.00;100491.25;4911753;29;20065;-78
2024/04/06 02:16:55;;;;;;;2.85;1.40;;;13.00;99.90;;;17.40;100.00;100485.94;4894143;29;20088;-79
2024/04/06 02:19:21;;;;;;;3.35;1.48;;;13.10;99.90;;;17.46;100.00;100494.25;4908035;29;20412;-78
2024/04/06 02:21:47;;;;;;;5.10;1.33;;;13.10;99.90;;;17.29;100.00;100492.50;4914518;29;20036;-78
2024/04/06 02:24:12;;;;;;;4.05;1.60;;;13.10;99.90;;;17.27;100.00;100502.97;4907104;29;20445;-78
2024/04/06 02:26:38;;;;;;;5.30;2.00;;;13.00;99.90;;;16.99;100.00;100493.09;4913993;29;20032;-77
2024/04/06 02:29:04;;;;;;;4.55;1.35;;;13.00;99.90;;;17.23;100.00;100507.31;4915359;29;20447;-77
2024/04/06 02:31:30;;;;;;;3.55;1.60;;;13.10;99.90;;;17.35;100.00;100510.72;4915535;29;20052;-77
2024/04/06 02:33:55;;;;;;;5.70;1.83;;;13.10;99.90;;;17.34;100.00;100520.09;4904616;29;20037;-78
2024/04/06 02:36:21;;;;;;;4.10;1.95;;;13.10;99.90;;;17.35;100.00;100516.25;4915326;29;20055;-78
2024/04/06 02:38:47;;;;;;;5.53;1.92;;;13.10;99.90;;;17.25;100.00;100505.16;4914966;29;20084;-79
2024/04/06 02:41:13;;;;;;;4.40;1.40;;;13.20;99.90;;;17.50;100.00;100528.47;4914319;29;20111;-79
2024/04/06 02:43:39;;;;;;;5.90;1.90;;;13.20;99.90;;;17.39;100.00;100514.63;4912410;29;20056;-79
2024/04/06 02:46:04;;;;;;;4.50;1.70;;;13.30;99.90;;;17.58;100.00;100513.34;4915087;29;20043;-79
2024/04/06 02:48:30;;;;;;;6.00;1.58;;;13.40;99.90;;;17.60;100.00;100508.38;4915371;29;20047;-77
2024/04/06 02:50:56;;;;;;;4.43;1.80;;;13.30;99.90;;;17.57;100.00;100495.97;4914031;29;20036;-78
2024/04/06 02:53:21;;;;;;;2.75;1.50;;;13.30;99.90;;;17.67;100.00;100504.28;4920814;29;20397;-78
2024/04/06 02:55:47;;;;;;;3.67;1.48;;;13.20;99.90;;;17.56;100.00;100499.00;4913331;29;20087;-77
2024/04/06 02:58:13;;;;;;;3.17;1.60;;;13.10;99.90;;;17.64;100.00;100504.03;4902671;29;20036;-78
2024/04/06 03:00:38;;;;;;;5.30;1.60;;;13.20;99.90;;;17.72;100.00;100491.63;4930687;29;20044;-78
2024/04/06 03:03:04;;;;;;;5.43;1.70;;;13.10;99.90;;;17.53;100.00;100495.66;4908755;29;20048;-78
2024/04/06 03:05:30;;;;;;;8.88;2.08;;;13.10;99.90;;;17.53;100.00;100505.88;4912351;29;20176;-78
2024/04/06 03:07:56;;;;;;;3.63;1.48;;;13.10;99.90;;;17.46;100.00;100510.78;4919126;29;20036;-77
2024/04/06 03:10:22;;;;;;;6.43;1.70;;;13.10;99.90;;;17.39;100.00;100502.78;4914853;29;20036;-78
2024/04/06 03:12:48;;;;;;;3.45;1.50;;;13.10;99.90;;;17.56;100.00;100521.06;4887604;29;20108;-79
2024/04/06 03:15:15;;;;;;;5.28;1.63;;;13.10;99.90;;;17.41;100.00;100514.38;4922884;29;20035;-79
2024/04/06 03:17:42;;;;;;;5.18;1.67;;;13.10;99.90;;;17.50;100.00;100509.16;4911263;29;20039;-78
2024/04/06 03:20:08;;;;;;;7.45;1.92;;;13.10;99.90;;;17.39;100.00;100503.59;4913464;29;20036;-79
2024/04/06 03:22:34;;;;;;;3.28;1.52;;;13.20;99.90;;;17.56;100.00;100508.09;4910478;29;20489;-78
2024/04/06 03:24:59;;;;;;;3.70;1.70;;;13.20;99.90;;;17.56;100.00;100527.41;4910549;29;20114;-77
2024/04/06 03:27:26;;;;;;;3.08;1.40;;;13.10;99.90;;;17.30;100.00;100516.22;4912612;29;20024;-77
2024/04/06 03:29:51;;;;;;;5.50;1.42;;;13.10;99.90;;;17.28;100.00;100517.56;4914536;29;20342;-78
2024/04/06 03:32:17;;;;;;;5.22;1.80;;;13.10;99.90;;;17.25;100.00;100532.72;4926821;29;20040;-77
2024/04/06 03:34:43;;;;;;;6.00;2.15;;;13.10;99.90;;;17.31;100.00;100523.41;4897943;29;20033;-77
2024/04/06 03:37:09;;;;;;;6.32;1.70;;;13.00;99.90;;;17.38;100.00;100510.19;4914585;29;20480;-78
2024/04/06 03:39:35;;;;;;;3.67;1.70;;;13.00;99.90;;;17.08;100.00;100497.03;4913539;29;20040;-79
2024/04/06 03:42:00;;;;;;;3.97;1.50;;;13.00;99.90;;;17.35;100.00;100504.38;4893245;29;20091;-80
2024/04/06 03:44:26;;;;;;;4.70;1.45;;;13.00;99.90;;;17.50;100.00;100509.16;4916077;29;20053;-80
2024/04/06 03:46:52;;;;;;;2.78;1.40;;;12.90;99.90;;;17.58;100.00;100505.06;4926552;29;20037;-79
2024/04/06 03:49:18;;;;;;;3.17;1.40;;;12.90;99.90;;;17.29;100.00;100494.41;4917182;29;20055;-78
2024/04/06 03:51:44;;;;;;;5.55;1.73;;;12.80;99.90;;;17.47;100.00;100506.94;4900214;29;20251;-79
2024/04/06 03:54:09;;;;;;;3.13;1.63;;;12.70;99.90;;;17.21;100.00;100509.53;4923673;29;20035;-79
2024/04/06 03:56:35;;;;;;;3.92;1.60;;;12.70;99.90;;;17.12;100.00;100517.47;4913113;29;20717;-79
2024/04/06 03:59:01;;;;;;;5.40;1.73;;;12.70;99.90;;;17.23;100.00;100521.13;4910034;29;20120;-79
2024/04/06 04:01:26;;;;;;;3.78;1.67;;;12.70;99.90;;;17.05;100.00;100525.97;4912109;29;20036;-79
2024/04/06 04:03:52;;;;;;;6.15;1.83;;;12.60;99.90;;;17.26;100.00;100539.91;4917107;29;20822;-79
2024/04/06 04:06:18;;;;;;;4.95;1.70;;;12.60;99.90;;;17.16;100.00;100535.16;4914038;29;20036;-79
2024/04/06 04:08:44;;;;;;;3.70;1.60;;;12.60;99.90;;;17.14;100.00;100514.44;4939523;29;20064;-79
2024/04/06 04:11:10;;;;;;;3.88;1.85;;;12.60;99.90;;;17.18;100.00;100532.94;4922083;29;20045;-78
2024/04/06 04:13:36;;;;;;;3.92;1.38;;;12.60;99.90;;;17.23;100.00;100541.25;4930248;29;20036;-79
2024/04/06 04:16:02;;;;;;;4.40;1.50;;;12.70;99.90;;;17.13;100.00;100527.41;4930949;29;20032;-78
2024/04/06 04:18:27;;;;;;;3.22;1.63;;;12.70;99.90;;;17.17;100.00;100530.44;4912601;29;20127;-80
2024/04/06 04:20:53;;;;;;;4.82;1.80;;;12.60;99.90;;;17.13;100.00;100530.16;4915468;29;20044;-79
2024/04/06 04:23:19;;;;;;;3.33;1.73;;;12.60;99.90;;;17.07;100.00;100529.28;4913177;29;20047;-79
2024/04/06 04:25:44;;;;;;;3.13;1.55;;;12.60;99.90;;;17.10;100.00;100530.66;4911360;29;20137;-79
2024/04/06 04:28:10;;;;;;;3.75;1.67;;;12.60;99.90;;;17.15;100.00;100524.38;4916290;29;20048;-80
2024/04/06 04:30:36;;;;;;;3.63;1.50;;;12.60;99.90;;;17.22;100.00;100503.75;4913946;29;20043;-79
2024/04/06 04:33:02;;;;;;;4.35;1.50;;;12.60;99.90;;;17.10;100.00;100520.47;4908345;29;20049;-80
2024/04/06 04:35:27;;;;;;;2.83;1.38;;;12.60;99.90;;;17.09;100.00;100513.31;4908376;29;20051;-79
2024/04/06 04:37:53;;;;;;;3.10;1.42;;;12.70;99.90;;;17.25;100.00;100491.38;4912975;29;20044;-79
2024/04/06 04:40:19;;;;;;;3.40;1.58;;;12.70;99.90;;;17.47;100.00;100512.44;4926568;29;20050;-81
2024/04/06 04:42:45;;;;;;;5.40;1.70;;;12.80;99.90;;;17.30;100.00;100499.69;4914196;29;20523;-79
2024/04/06 04:45:13;;;;;;;5.97;1.48;;;12.80;99.90;;;17.61;100.00;100513.66;4913334;29;20055;-77
2024/04/06 04:47:39;;;;;;;4.57;1.80;;;12.80;99.90;;;17.61;100.00;100505.38;4906046;29;20416;-77
2024/04/06 04:50:08;;;;;;;6.30;1.60;;;12.90;99.90;;;17.05;100.00;100503.91;4907888;29;20052;-77
2024/04/06 04:52:35;;;;;;;3.22;1.73;;;12.90;99.90;;;17.02;100.00;100511.88;4912744;29;20040;-78
2024/04/06 04:55:03;;;;;;;5.55;1.60;;;12.90;99.90;;;17.23;100.00;100496.31;4898346;29;20040;-78
2024/04/06 04:57:29;;;;;;;4.22;1.40;;;13.00;99.90;;;16.94;100.00;100502.13;4912394;29;20040;-78
2024/04/06 04:59:54;;;;;;;5.25;1.58;;;13.00;99.90;;;17.12;100.00;100509.22;4909005;29;20040;-78
2024/04/06 05:02:20;;;;;;;4.25;1.60;;;13.00;99.90;;;17.26;100.00;100501.31;4911278;29;20036;-77
2024/04/06 05:04:46;;;;;;;4.75;1.55;;;13.00;99.90;;;17.49;100.00;100510.25;4910338;29;20040;-78
2024/04/06 05:07:12;;;;;;;5.72;1.83;;;13.00;99.90;;;17.25;100.00;100505.16;4924907;29;20523;-79
2024/04/06 05:09:38;;;;;;;5.15;1.60;;;13.00;99.90;;;17.11;100.00;100511.13;4910154;29;20028;-78
2024/04/06 05:12:04;;;;;;;4.45;1.67;;;12.90;99.90;;;17.08;100.00;100502.53;4916983;29;20046;-76
2024/04/06 05:14:29;;;;;;;3.13;1.60;;;12.90;99.90;;;17.38;100.00;100518.47;4902804;29;20580;-77
2024/04/06 05:16:55;;;;;;;3.40;1.40;;;12.80;99.90;;;16.89;100.00;100518.63;4906464;29;20036;-77
2024/04/06 05:19:21;;;;;;;3.95;1.60;;;12.80;99.90;;;16.90;100.00;100520.28;4903348;29;20060;-77
2024/04/06 05:21:49;;;;;;;4.05;1.70;;;12.80;99.90;;;16.72;100.00;100522.34;4909173;29;20091;-76
2024/04/06 05:24:15;;;;;;;4.00;1.88;;;12.80;99.90;;;16.96;100.00;100531.09;4927089;29;20032;-77
2024/04/06 05:26:41;;;;;;;4.07;1.40;;;12.80;99.90;;;16.93;100.00;100536.28;4913555;29;20503;-77
2024/04/06 05:29:08;;;;;;;4.90;2.13;;;12.90;99.90;;;16.78;100.00;100524.06;4906069;29;20038;-76
2024/04/06 05:31:34;;;;;;;4.75;1.77;;;13.00;99.90;;;17.06;100.00;100538.66;4908137;29;20077;-77
2024/04/06 05:34:00;;;;;;;3.28;1.60;;;13.00;99.90;;;16.71;100.00;100539.13;4907682;29;20401;-77
2024/04/06 05:36:26;;;;;;;3.60;1.52;;;13.10;99.90;;;16.72;100.00;100529.75;4921734;29;20054;-76
2024/04/06 05:38:53;;;;;;;5.07;1.83;;;13.10;99.90;;;16.89;100.00;100527.72;4899060;29;20055;-76
2024/04/06 05:41:19;;;;;;;3.33;1.40;;;13.20;99.90;;;16.97;100.00;100542.94;4885408;29;20032;-75
2024/04/06 05:43:45;;;;;;;3.88;1.35;;;13.30;99.90;;;17.24;100.00;100544.84;4904522;29;20066;-77
2024/04/06 05:46:10;;;;;;;3.72;1.20;;;13.40;99.90;;;17.79;100.00;100552.91;4909009;29;20052;-78
2024/04/06 05:48:39;;;;;;;3.90;1.30;;;13.50;99.90;;;17.56;100.00;100537.59;4926560;29;20048;-78
2024/04/06 05:51:05;;;;;;;3.33;1.40;;;13.50;99.90;;;17.42;100.00;100543.59;4915588;29;20421;-78
2024/04/06 05:53:30;;;;;;;4.47;1.65;;;13.60;99.90;;;17.52;100.00;100567.66;4898866;29;20044;-78
2024/04/06 05:56:11;;;;;;;5.10;1.50;;;13.60;99.90;;;17.43;100.00;100572.00;4916005;29;20047;-78
2024/04/06 05:58:40;;;;;;;4.43;1.40;;;13.50;99.90;;;17.04;100.00;100571.16;4919360;29;20060;-77
2024/04/06 06:01:05;;;;;;;5.82;1.80;;;13.50;99.90;;;16.88;100.00;100572.91;4914041;29;20028;-78
2024/04/06 06:03:31;;;;;;;3.75;1.38;;;13.40;99.90;;;17.32;100.00;100593.97;4908566;29;20459;-78
2024/04/06 06:05:57;;;;;;;4.10;1.90;;;13.40;99.90;;;17.37;100.00;100590.41;4909831;29;20405;-79
2024/04/06 06:08:23;;;;;;;3.83;1.30;;;13.40;99.90;;;17.81;100.00;100594.88;4925286;29;20040;-78
2024/04/06 06:10:48;;;;;;;2.88;1.30;;;13.50;99.90;;;17.88;100.00;100608.41;4912805;29;20060;-78
2024/04/06 06:13:14;;;;;;;3.08;1.20;;;13.50;99.90;;;17.35;100.00;100595.34;4898830;29;20040;-78
2024/04/06 06:15:40;;;;;;;4.68;1.65;;;13.60;99.90;;;17.69;100.00;100615.19;4912635;29;20067;-77
2024/04/06 06:18:06;;;;;;;2.67;1.20;;;13.70;99.90;;;17.77;100.00;100593.72;4910768;29;20040;-77
2024/04/06 06:20:32;;;;;;;2.58;1.40;;;13.80;99.90;;;18.21;100.00;100603.66;4915749;29;20068;-78
2024/04/06 06:22:58;;;;;;;2.67;1.38;;;14.00;99.90;;;18.41;100.00;100613.94;4921203;29;20060;-78
2024/04/06 06:25:24;;;;;;;4.03;1.40;;;14.20;99.90;;;18.10;100.00;100614.63;4912740;29;20042;-78
2024/04/06 06:27:50;;;;;;;3.67;1.33;;;14.30;99.90;;;18.04;100.00;100593.63;4906214;29;20035;-78
2024/04/06 06:30:16;;;;;;;2.95;1.33;;;14.40;99.90;;;18.05;100.00;100583.44;4909191;29;20032;-75
2024/04/06 06:32:42;;;;;;;3.47;1.20;;;14.50;99.90;;;17.97;100.00;100610.41;4906630;29;20096;-77
2024/04/06 06:35:17;;;;;;;3.47;1.40;;;14.70;99.90;;;18.09;100.00;100601.94;4900908;29;20040;-75
2024/04/06 06:37:46;;;;;;;4.32;1.50;;;14.80;99.90;;;18.48;100.00;100628.34;4908204;29;20036;-75
2024/04/06 06:40:11;;;;;;;4.78;1.40;;;14.90;99.90;;;18.53;100.00;100616.47;4909460;29;20091;-77
2024/04/06 06:42:37;;;;;;;4.68;1.48;;;15.10;99.90;;;18.76;100.00;100614.34;4904246;29;20063;-75
2024/04/06 06:45:05;;;;;;;3.65;1.35;;;15.30;99.90;;;18.74;98.43;100614.59;4906230;29;20408;-75
2024/04/06 06:47:35;;;;;;;3.38;1.40;;;15.40;99.90;;;19.07;97.32;100620.75;4910389;29;20043;-74
2024/04/06 06:50:02;;;;;;;3.70;1.33;;;15.50;99.90;;;18.89;98.50;100607.44;4909779;29;20056;-76
2024/04/06 06:52:28;;;;;;;3.70;1.45;;;15.50;99.90;;;19.24;94.88;100620.53;4907873;29;20520;-77
2024/04/06 06:54:54;;;;;;;3.85;1.40;;;;;;;19.43;94.51;100610.84;4909543;29;20068;-76
2024/04/06 06:57:20;;;;;;;3.47;1.20;;;15.60;99.90;;;19.47;93.85;100620.22;4909581;29;20046;-76
2024/04/06 06:59:46;;;;;;;3.20;1.42;;;15.90;99.90;;;19.37;91.48;100621.91;4914363;29;20389;-78
2024/04/06 07:02:11;;;;;;;3.30;1.13;;;15.90;99.90;;;19.09;91.43;100609.44;4911253;29;20036;-76
2024/04/06 07:04:37;;;;;;;3.90;1.23;;;16.00;99.90;;;19.58;91.51;100630.16;4906698;29;20048;-79
2024/04/06 07:07:05;;;;;;;2.38;0.95;;;16.10;99.90;;;19.37;91.29;100618.28;4902318;29;20028;-77
2024/04/06 07:09:31;;;;;;;2.88;1.10;;;16.10;99.90;;;19.63;92.49;100621.03;4907591;29;20048;-78
2024/04/06 07:11:57;;;;;;;4.18;1.30;;;16.10;99.90;;;19.97;92.46;100607.44;4912157;29;20036;-77
2024/04/06 07:14:25;;;;;;;3.00;1.40;;;16.30;99.90;;;19.98;88.96;100614.63;4915033;29;20040;-76
2024/04/06 07:16:51;;;;;;;3.95;1.08;;;16.50;99.90;;;20.00;86.48;100616.28;4909137;29;20122;-75
2024/04/06 07:19:17;;;;;;;4.15;1.20;;;16.50;99.90;;;19.83;87.11;100603.56;4912131;29;20044;-77
2024/04/06 07:21:43;;;;;;;2.35;0.88;;;16.50;99.90;;;20.07;87.06;100609.34;4914235;29;20064;-78
2024/04/06 07:24:09;;;;;;;2.00;0.90;;;16.60;99.90;;;19.89;88.05;100615.47;4910255;29;20551;-77
2024/04/06 07:26:36;;;;;;;3.72;1.20;;;16.60;99.90;;;20.10;87.46;100619.03;4904365;29;20512;-77
2024/04/06 07:29:05;;;;;;;3.55;1.05;;;;;;;20.12;87.22;100616.78;4907884;29;20048;-78
2024/04/06 07:31:31;;;;;;;4.18;1.02;;;16.70;99.90;;;20.53;84.42;100613.03;4921452;29;20036;-77
2024/04/06 07:33:56;;;;;;;3.20;1.05;;;16.80;99.90;;;20.56;82.66;100582.00;4924795;29;20120;-78
2024/04/06 07:36:22;;;;;;;5.18;1.00;;;16.90;99.90;;;20.57;82.70;100589.19;4913564;29;20333;-77
2024/04/06 07:38:48;;;;;;;2.65;0.98;;;17.10;99.90;;;20.72;82.43;100607.69;4913358;29;20055;-78
2024/04/06 07:41:13;;;;;;;1.92;0.80;;;17.20;99.90;;;20.97;79.01;100586.47;4913347;29;20050;-78
2024/04/06 07:43:39;;;;;;;1.65;0.90;;;;;;;21.04;78.92;100592.50;4907393;29;20071;-76
2024/04/06 07:46:06;;;;;;;3.05;0.90;;;;;;;20.83;81.38;100609.28;4913986;29;20104;-76
2024/04/06 07:48:31;;;;;;;4.40;0.95;;;17.30;99.90;;;21.25;77.01;100593.16;4909722;29;20130;-76
2024/04/06 07:50:57;;;;;;;3.08;1.15;;;;;;;21.92;72.13;100600.03;4914835;29;20384;-77
2024/04/06 07:53:24;;;;;;;2.78;0.90;;;;;;;21.65;75.82;100612.53;4907400;29;20065;-78
2024/04/06 07:55:50;;;;;;;2.08;0.70;;;;;;;21.54;71.63;100603.44;4913089;29;20032;-76
2024/04/06 07:58:16;;;;;;;1.80;0.77;;;;;;;21.42;71.92;100606.59;4924706;29;20051;-77
2024/04/06 08:00:42;;;;;;;2.92;1.20;;;;;;;21.67;72.27;100615.84;4897608;29;20096;-77
2024/04/06 08:03:08;;;;;;;2.92;0.85;;;;;;;21.71;69.74;100605.00;4918741;29;20028;-79
2024/04/06 08:05:35;;;;;;;2.25;0.70;;;;;;;21.69;73.39;100610.81;4907309;29;20063;-79
2024/04/06 08:08:01;;;;;;;2.78;0.88;;;;;;;22.21;70.55;100601.13;4912863;29;20044;-77
2024/04/06 08:10:28;;;;;;;2.55;0.80;;;;;;;22.66;71.11;100607.19;4907873;29;20033;-79
2024/04/06 08:12:54;;;;;;;2.63;0.90;;;;;;;22.24;69.46;100595.78;4925116;29;20369;-77
2024/04/06 08:15:20;;;;;;;3.10;0.93;;;;;;;22.04;71.52;100598.81;4906186;29;20043;-77
2024/04/06 08:17:53;;;;;;;3.17;0.93;;;;;;;22.35;69.38;100579.78;4908383;29;20078;-76
2024/04/06 08:20:20;;;;;;;3.17;0.73;;;;;;;22.17;72.05;100584.19;4890723;29;20047;-78
2024/04/06 08:22:46;;;;;;;4.35;0.90;;;;;;;22.11;71.50;100580.66;4905564;29;20114;-76
2024/04/06 08:25:12;;;;;;;1.88;0.68;;;;;;;21.55;73.73;100585.69;4902531;29;20037;-76
2024/04/06 08:27:39;;;;;;;2.47;0.70;;;;;;;21.52;74.52;100574.34;4903272;29;20456;-77
2024/04/06 08:30:07;;;;;;;2.78;0.77;;;;;;;21.65;74.55;100570.91;4928985;29;20500;-75
2024/04/06 08:32:39;;;;;;;2.90;0.90;;;;;;;22.08;73.40;100572.09;4904301;29;20032;-76
2024/04/06 08:35:11;;;;;;;2.78;0.85;;;;;;;22.39;70.91;100575.28;4910220;29;20029;-77
2024/04/06 08:37:43;;;;;;;3.25;0.80;;;;;;;22.02;72.15;100578.84;4913860;29;20044;-77
2024/04/06 08:40:12;;;;;;;1.67;0.70;;;;;;;22.27;69.37;100575.72;4926849;29;20045;-76
2024/04/06 08:42:43;;;;;;;2.85;0.85;;;;;;;22.59;68.79;100570.63;4916125;29;20052;-76
2024/04/06 08:45:10;;;;;;;2.13;0.80;;;;;;;22.66;69.54;100567.47;4909961;29;20104;-76
2024/04/06 08:47:37;;;;;;;2.88;0.93;;;;;;;23.30;67.48;100569.78;4915226;29;20078;-77
2024/04/06 08:50:10;;;;;;;1.25;0.60;;;;;;;23.53;63.11;100550.47;4919719;29;20044;-75
2024/04/06 08:52:40;;;;;;;3.03;1.00;;;;;;;22.89;64.62;100556.56;4893611;29;20067;-78
2024/04/06 08:55:08;;;;;;;2.15;0.80;;;;;;;23.30;63.23;100557.84;4914735;29;20032;-78
2024/04/06 08:57:39;;;;;;;1.75;0.70;;;;;;;23.86;67.12;100569.88;4927974;29;20040;-78
2024/04/06 09:00:10;;;;;;;2.50;0.82;;;;;;;24.10;63.57;100564.13;4929414;29;20047;-77
2024/04/06 09:02:36;;;;;;;2.05;0.82;;;;;;;24.20;61.01;100557.53;4930827;29;20048;-77
2024/04/06 09:05:03;;;;;;;2.40;0.82;;;;;;;24.17;60.56;100541.44;4930616;29;20044;-76
2024/04/06 09:07:29;;;;;;;2.38;0.90;;;;;;;23.98;62.52;100555.44;4899660;29;20064;-74
2024/04/06 09:09:56;;;;;;;2.33;0.80;;;;;;;23.86;62.78;100547.59;4924475;29;20468;-77
2024/04/06 09:12:22;;;;;;;1.20;0.80;;;;;;;24.77;59.98;100544.28;4906266;29;20055;-77
2024/04/06 09:14:49;;;;;;;2.70;1.00;;;;;;;25.02;58.19;100540.06;4915080;29;20089;-77
2024/04/06 09:17:21;;;;;;;3.15;0.98;;;;;;;23.64;58.27;100540.81;4901847;29;20119;-77
2024/04/06 09:19:47;;;;;;;4.05;1.10;;;;;;;24.22;60.86;100554.41;4911138;29;20404;-77
2024/04/06 09:22:13;;;;;;;3.67;1.00;;;;;;;24.99;58.03;100554.66;4911090;29;20050;-76
2024/04/06 09:24:39;;;;;;;2.08;0.90;;;;;;;24.89;57.57;100546.50;4910832;29;20068;-77
2024/04/06 09:27:11;;;;;;;3.25;0.98;;;;;;;24.64;55.67;100538.44;4910706;29;20115;-79
2024/04/06 09:29:39;;;;;;;6.53;1.30;;;;;;;24.81;53.83;100518.25;4907033;29;20112;-76
2024/04/06 09:32:10;;;;;;;2.15;0.80;;;;;;;24.93;54.72;100525.19;4913098;29;20126;-77
2024/04/06 09:34:42;;;;;;;3.08;0.90;;;;;;;25.27;55.53;100537.75;4916699;29;20549;-77
2024/04/06 09:37:10;;;;;;;2.50;1.00;;;;;;;24.76;55.92;100535.09;4917166;29;20131;-76
2024/04/06 09:39:38;;;;;;;3.22;1.00;;;;;;;24.40;56.67;100535.91;4915783;29;20097;-76
2024/04/06 09:42:06;;;;;;;4.07;0.90;;;;;;;24.62;56.60;100542.66;4917432;29;20107;-76
2024/04/06 09:44:32;;;;;;;3.67;1.10;;;;;;;24.51;56.27;100540.13;4915930;29;20054;-78
2024/04/06 09:46:59;;;;;;;3.25;1.08;;;;;;;24.16;57.27;100538.94;4916239;29;20094;-76
2024/04/06 09:49:26;;;;;;;2.77;1.10;;;;;;;24.77;56.81;100542.34;4916956;29;20036;-75
2024/04/06 09:51:53;;;;;;;3.35;1.30;;;;;;;24.53;57.47;100537.84;4914911;29;20330;-77
2024/04/06 09:54:20;;;;;;;2.22;1.10;;;;;;;24.32;56.86;100536.66;4916123;29;20052;-76
2024/04/06 09:56:50;;;;;;;3.13;1.30;;;;;;;24.92;56.72;100537.50;4916270;29;20126;-76
2024/04/06 09:59:23;;;;;;;4.00;1.10;;;;;;;25.06;56.52;100531.84;4907264;29;20492;-77
2024/04/06 10:01:52;;;;;;;2.15;0.90;;;;;;;25.08;56.01;100536.00;4925979;29;20040;-76
2024/04/06 10:04:23;;;;;;;2.40;1.10;;;;;;;25.43;53.00;100525.00;4908500;29;20036;-77
2024/04/06 10:06:56;;;;;;;3.15;1.30;;;;;;;26.63;51.88;100521.59;4910634;29;20044;-77
2024/04/06 10:09:32;;;;;;;3.00;1.00;;;;;;;27.08;49.66;100520.41;4915383;29;20681;-76
2024/04/06 10:12:00;;;;;;;2.28;1.00;;;;;;;28.25;47.42;100519.28;4908581;29;20214;-77
2024/04/06 10:14:29;;;;;;;2.15;1.00;;;;;;;28.48;45.29;100498.47;4904836;29;20045;-78
2024/04/06 10:17:09;;;;;;;3.10;1.10;;;;;;;29.55;43.01;100481.03;4913270;29;20139;-76
2024/04/06 10:19:43;;;;;;;4.78;1.20;;;;;;;29.70;44.63;100506.81;4911334;29;20048;-77
2024/04/06 10:22:10;;;;;;;3.80;1.15;;;;;;;29.21;43.53;100490.72;4911842;29;20039;-77
2024/04/06 10:24:37;;;;;;;2.92;1.00;;;;;;;29.23;42.67;100471.53;4913172;29;20043;-76